createdAt,value
2019-02-22T00:00:49.721Z,101393.60
2019-02-22T00:03:20.943Z,101406.89
2019-02-22T00:05:53.082Z,101404.88
2019-02-22T00:08:25.577Z,101407.23
2019-02-22T00:10:57.877Z,101413.72
2019-02-22T00:13:30.322Z,101413.72
2019-02-22T00:16:03.004Z,101414.73
2019-02-22T00:18:35.591Z,101411.70
2019-02-22T00:21:08.065Z,101410.66
2019-02-22T00:23:40.358Z,101410.66
2019-02-22T00:26:13.015Z,101425.67
2019-02-22T00:28:45.295Z,101436.55
2019-02-22T00:31:18.012Z,101429.08
2019-02-22T00:33:49.898Z,101438.59
2019-02-22T00:36:21.987Z,101431.52
2019-02-22T00:38:54.087Z,101438.96
2019-02-22T00:41:26.893Z,101439.47
2019-02-22T00:43:59.806Z,101438.80
2019-02-22T00:46:31.985Z,101434.69
2019-02-22T00:49:04.326Z,101433.97
2019-02-22T00:51:37.054Z,101429.05
2019-02-22T00:54:09.908Z,101432.48
2019-02-22T00:56:42.297Z,101427.88
2019-02-22T00:59:14.925Z,101435.53
2019-02-22T01:01:47.329Z,101430.20
2019-02-22T01:04:19.870Z,101427.31
2019-02-22T01:06:52.397Z,101430.74
2019-02-22T01:09:24.860Z,101430.03
2019-02-22T01:11:56.900Z,101432.75
2019-02-22T01:14:29.297Z,101437.54
2019-02-22T01:17:01.910Z,101437.20
2019-02-22T01:19:34.408Z,101438.77
2019-02-22T01:22:07.012Z,101447.63
2019-02-22T01:24:39.415Z,101448.99
2019-02-22T01:27:11.894Z,101449.58
2019-02-22T01:29:44.479Z,101458.95
2019-02-22T01:32:16.891Z,101446.72
2019-02-22T01:34:49.360Z,101449.88
2019-02-22T01:37:21.937Z,101458.11
2019-02-22T01:39:54.623Z,101465.25
2019-02-22T01:42:26.866Z,101463.17
2019-02-22T01:44:59.428Z,101463.17
2019-02-22T01:47:32.326Z,101468.61
2019-02-22T01:50:05.021Z,101473.54
2019-02-22T01:52:37.487Z,101476.63
2019-02-22T01:55:09.898Z,101478.98
2019-02-22T01:57:42.346Z,101477.14
2019-02-22T02:00:14.917Z,101477.59
2019-02-22T02:02:47.316Z,101484.01
2019-02-22T02:05:19.916Z,101483.16
2019-02-22T02:07:52.329Z,101491.89
2019-02-22T02:10:24.906Z,101493.09
2019-02-22T02:12:57.022Z,101496.52
2019-02-22T02:15:29.652Z,101508.55
2019-02-22T02:18:01.879Z,101509.16
2019-02-22T02:20:34.135Z,101509.16
2019-02-22T02:23:06.545Z,101523.09
2019-02-22T02:25:38.856Z,101529.25
2019-02-22T02:28:11.736Z,101524.87
2019-02-22T02:30:43.506Z,101519.94
2019-02-22T02:33:15.861Z,101531.67
2019-02-22T02:35:48.338Z,101530.52
2019-02-22T02:38:20.871Z,101530.52
2019-02-22T02:40:53.154Z,101532.42
2019-02-22T02:43:26.410Z,101532.72
2019-02-22T02:45:58.874Z,101538.67
2019-02-22T02:48:31.361Z,101535.54
2019-02-22T02:51:03.860Z,101543.77
2019-02-22T02:53:36.370Z,101544.96
2019-02-22T02:56:08.834Z,101546.63
2019-02-22T02:58:41.090Z,101552.41
2019-02-22T03:01:13.887Z,101555.13
2019-02-22T03:03:46.038Z,101561.23
2019-02-22T03:06:27.794Z,101555.08
2019-02-22T03:08:59.137Z,101558.95
2019-02-22T03:11:31.866Z,101560.31
2019-02-22T03:14:03.872Z,101570.55
2019-02-22T03:16:36.355Z,101573.06
2019-02-22T03:19:09.015Z,101575.82
2019-02-22T03:21:41.888Z,101572.12
2019-02-22T03:24:14.107Z,101580.27
2019-02-22T03:26:46.878Z,101588.77
2019-02-22T03:29:18.937Z,101591.50
2019-02-22T03:31:51.893Z,101595.87
2019-02-22T03:34:24.087Z,101594.86
2019-02-22T03:36:56.872Z,101600.67
2019-02-22T03:39:29.124Z,101600.07
2019-02-22T03:42:01.842Z,101604.70
2019-02-22T03:44:34.042Z,101600.41
2019-02-22T03:47:06.352Z,101599.01
2019-02-22T03:49:38.910Z,101602.38
2019-02-22T03:52:25.484Z,101606.37
2019-02-22T03:54:58.109Z,101608.75
2019-02-22T03:57:30.392Z,101616.06
2019-02-22T04:00:02.886Z,101621.06
2019-02-22T04:02:35.330Z,101623.19
2019-02-22T04:05:08.064Z,101622.98
2019-02-22T04:07:40.365Z,101630.92
2019-02-22T04:10:12.894Z,101633.98
2019-02-22T04:12:44.941Z,101638.45
2019-02-22T04:15:17.334Z,101642.73
2019-02-22T04:17:49.880Z,101649.53
2019-02-22T04:20:22.362Z,101660.11
2019-02-22T04:22:54.887Z,101663.69
2019-02-22T04:25:27.039Z,101663.42
2019-02-22T04:27:59.346Z,101673.00
2019-02-22T04:30:32.329Z,101676.52
2019-02-22T04:33:04.887Z,101680.52
2019-02-22T04:35:36.893Z,101681.95
2019-02-22T04:38:08.867Z,101684.68
2019-02-22T04:40:40.851Z,101691.48
2019-02-22T04:43:12.874Z,101685.70
2019-02-22T04:45:45.101Z,101691.19
2019-02-22T04:48:17.878Z,101693.05
2019-02-22T04:50:50.322Z,101696.62
2019-02-22T04:53:23.023Z,101700.91
2019-02-22T04:55:55.328Z,101701.92
2019-02-22T04:58:28.011Z,101701.79
2019-02-22T05:01:00.332Z,101700.64
2019-02-22T05:03:32.894Z,101703.52
2019-02-22T05:06:04.901Z,101706.23
2019-02-22T05:08:37.020Z,101721.66
2019-02-22T05:11:09.857Z,101722.55
2019-02-22T05:13:42.210Z,101725.97
2019-02-22T05:16:15.383Z,101725.32
2019-02-22T05:18:47.904Z,101735.52
2019-02-22T05:21:21.114Z,101732.59
2019-02-22T05:23:53.895Z,101731.61
2019-02-22T05:28:28.104Z,101735.11
2019-02-22T05:31:00.930Z,101740.11
2019-02-22T05:33:33.425Z,101743.23
2019-02-22T05:36:06.338Z,101752.94
2019-02-22T05:38:39.041Z,101754.36
2019-02-22T05:41:13.122Z,101756.45
2019-02-22T05:43:48.422Z,101756.66
2019-02-22T05:46:21.096Z,101757.23
2019-02-22T05:48:53.872Z,101760.39
2019-02-22T05:51:26.377Z,101765.95
2019-02-22T05:53:58.862Z,101766.97
2019-02-22T05:56:30.930Z,101777.20
2019-02-22T05:59:03.321Z,101785.11
2019-02-22T06:01:36.508Z,101790.13
2019-02-22T06:04:08.840Z,101799.92
2019-02-22T06:06:40.942Z,101799.48
2019-02-22T06:09:12.996Z,101810.13
2019-02-22T06:11:45.132Z,101813.34
2019-02-22T06:14:17.850Z,101820.05
2019-02-22T06:16:49.912Z,101827.12
2019-02-22T06:19:22.057Z,101829.30
2019-02-22T06:21:54.871Z,101829.94
2019-02-22T06:24:27.855Z,101828.30
2019-02-22T06:27:00.084Z,101841.38
2019-02-22T06:29:32.359Z,101842.51
2019-02-22T06:32:04.886Z,101850.37
2019-02-22T06:34:37.611Z,101861.30
2019-02-22T06:37:10.348Z,101863.89
2019-02-22T06:39:42.926Z,101863.89
2019-02-22T06:42:15.039Z,101875.52
2019-02-22T06:44:47.353Z,101882.97
2019-02-22T06:47:22.678Z,101891.06
2019-02-22T06:49:52.896Z,101891.06
2019-02-22T06:52:25.109Z,101890.21
2019-02-22T06:54:57.794Z,101898.14
2019-02-22T06:57:30.059Z,101902.84
2019-02-22T07:00:02.394Z,101907.65
2019-02-22T07:02:34.862Z,101904.66
2019-02-22T07:05:07.361Z,101907.27
2019-02-22T07:07:39.871Z,101913.70
2019-02-22T07:10:12.856Z,101921.81
2019-02-22T07:12:56.576Z,101924.65
2019-02-22T07:15:23.041Z,101926.44
2019-02-22T07:17:55.339Z,101931.14
2019-02-22T07:20:27.801Z,101935.06
2019-02-22T07:23:00.028Z,101941.39
2019-02-22T07:25:32.329Z,101945.69
2019-02-22T07:28:05.038Z,101949.30
2019-02-22T07:30:37.575Z,101961.76
2019-02-22T07:33:10.024Z,101951.28
2019-02-22T07:35:42.896Z,101951.28
2019-02-22T07:38:15.118Z,101981.42
2019-02-22T07:40:47.442Z,101979.88
2019-02-22T07:43:19.865Z,101992.58
2019-02-22T07:45:52.030Z,102001.65
2019-02-22T07:48:24.324Z,102003.89
2019-02-22T07:50:58.386Z,102005.54
2019-02-22T07:53:31.414Z,102012.80
2019-02-22T07:56:03.870Z,102012.80
2019-02-22T07:58:36.380Z,102015.59
2019-02-22T08:01:08.915Z,102018.81
2019-02-22T08:03:41.332Z,102033.14
2019-02-22T08:06:17.005Z,102037.17
2019-02-22T08:08:49.386Z,102043.23
2019-02-22T08:11:21.855Z,102053.24
2019-02-22T08:13:54.411Z,102062.02
2019-02-22T08:16:27.356Z,102067.95
2019-02-22T08:19:01.877Z,102076.95
2019-02-22T08:21:33.839Z,102085.26
2019-02-22T08:24:06.014Z,102085.26
2019-02-22T08:26:38.326Z,102090.81
2019-02-22T08:29:10.893Z,102091.81
2019-02-22T08:31:43.325Z,102100.70
2019-02-22T08:34:15.861Z,102103.27
2019-02-22T08:36:48.153Z,102120.20
2019-02-22T08:39:21.076Z,102132.03
2019-02-22T08:41:53.842Z,102133.45
2019-02-22T08:44:26.317Z,102137.91
2019-02-22T08:46:58.876Z,102149.02
2019-02-22T08:49:31.071Z,102154.65
2019-02-22T08:52:03.538Z,102156.16
2019-02-22T08:54:46.623Z,102167.64
2019-02-22T08:57:09.852Z,102167.64
2019-02-22T08:59:41.864Z,102177.05
2019-02-22T09:02:13.923Z,102183.45
2019-02-22T09:04:46.097Z,102184.70
2019-02-22T09:07:18.823Z,102189.53
2019-02-22T09:09:50.868Z,102203.02
2019-02-22T09:12:23.336Z,102204.59
2019-02-22T09:14:56.362Z,102207.81
2019-02-22T09:17:28.834Z,102210.42
2019-02-22T09:20:00.895Z,102212.03
2019-02-22T09:22:32.835Z,102217.84
2019-02-22T09:25:05.417Z,102223.52
2019-02-22T09:27:37.861Z,102227.59
2019-02-22T09:30:11.861Z,102241.91
2019-02-22T09:32:44.030Z,102242.39
2019-02-22T09:35:16.264Z,102243.75
2019-02-22T09:37:49.087Z,102248.05
2019-02-22T09:40:22.413Z,102251.90
2019-02-22T09:42:54.876Z,102256.08
2019-02-22T09:45:27.345Z,102261.77
2019-02-22T09:48:00.175Z,102269.41
2019-02-22T09:50:32.908Z,102268.92
2019-02-22T09:53:05.021Z,102281.14
2019-02-22T09:55:36.998Z,102282.64
2019-02-22T09:58:09.319Z,102285.45
2019-02-22T10:00:41.467Z,102290.53
2019-02-22T10:03:13.895Z,102302.00
2019-02-22T10:05:45.933Z,102304.62
2019-02-22T10:08:18.023Z,102312.77
2019-02-22T10:10:49.960Z,102315.84
2019-02-22T10:13:21.886Z,102314.23
2019-02-22T10:15:54.064Z,102321.74
2019-02-22T10:18:26.354Z,102327.45
2019-02-22T10:20:58.899Z,102333.73
2019-02-22T10:23:31.005Z,102338.67
2019-02-22T10:26:03.845Z,102346.57
2019-02-22T10:28:35.924Z,102349.78
2019-02-22T10:31:08.373Z,102356.83
2019-02-22T10:33:40.904Z,102357.29
2019-02-22T10:36:13.027Z,102360.50
2019-02-22T10:38:45.331Z,102361.00
2019-02-22T10:41:18.031Z,102367.54
2019-02-22T10:43:50.325Z,102376.19
2019-02-22T10:46:23.013Z,102378.15
2019-02-22T10:48:55.436Z,102387.91
2019-02-22T10:51:27.906Z,102392.23
2019-02-22T10:53:59.915Z,102398.27
2019-02-22T10:56:31.949Z,102404.44
2019-02-22T10:59:04.881Z,102402.83
2019-02-22T11:01:37.364Z,102406.00
2019-02-22T11:04:09.977Z,102412.91
2019-02-22T11:06:42.441Z,102423.52
2019-02-22T11:09:15.882Z,102423.97
2019-02-22T11:11:48.426Z,102424.36
2019-02-22T11:14:28.690Z,102434.03
2019-02-22T11:16:55.039Z,102426.62
2019-02-22T11:19:27.971Z,102426.62
2019-02-22T11:22:00.478Z,102431.19
2019-02-22T11:24:32.919Z,102438.32
2019-02-22T11:27:06.326Z,102447.96
2019-02-22T11:29:39.002Z,102455.11
2019-02-22T11:32:12.003Z,102462.89
2019-02-22T11:34:44.319Z,102473.49
2019-02-22T11:37:17.092Z,102473.08
2019-02-22T11:39:49.916Z,102477.16
2019-02-22T11:42:22.167Z,102479.16
2019-02-22T11:44:54.937Z,102477.67
2019-02-22T11:47:27.337Z,102482.84
2019-02-22T11:49:59.897Z,102486.56
2019-02-22T11:52:32.366Z,102489.04
2019-02-22T11:55:05.029Z,102499.52
2019-02-22T11:57:37.913Z,102501.58
2019-02-22T12:00:14.436Z,102507.34
2019-02-22T12:02:47.249Z,102501.92
2019-02-22T12:05:19.929Z,102511.86
2019-02-22T12:07:52.426Z,102513.38
2019-02-22T12:10:25.326Z,102517.05
2019-02-22T12:12:58.323Z,102513.71
2019-02-22T12:15:31.598Z,102522.17
2019-02-22T12:18:04.106Z,102524.98
2019-02-22T12:20:37.530Z,102529.27
2019-02-22T12:23:10.010Z,102522.69
2019-02-22T12:25:44.587Z,102522.69
2019-02-22T12:28:16.896Z,102539.13
2019-02-22T12:30:49.349Z,102545.28
2019-02-22T12:33:21.925Z,102548.39
2019-02-22T12:35:54.504Z,102553.06
2019-02-22T12:38:28.305Z,102548.76
2019-02-22T12:41:01.128Z,102559.88
2019-02-22T12:43:33.904Z,102572.22
2019-02-22T12:46:06.329Z,102574.27
2019-02-22T12:48:38.966Z,102578.05
2019-02-22T12:51:11.320Z,102584.20
2019-02-22T12:53:43.921Z,102582.98
2019-02-22T12:56:16.345Z,102586.95
2019-02-22T12:58:49.064Z,102588.57
2019-02-22T13:01:24.400Z,102589.53
2019-02-22T13:03:56.293Z,102585.66
2019-02-22T13:06:28.887Z,102585.66
2019-02-22T13:09:00.951Z,102612.09
2019-02-22T13:11:34.324Z,102623.15
2019-02-22T13:14:06.819Z,102625.49
2019-02-22T13:16:38.877Z,102627.48
2019-02-22T13:19:12.356Z,102628.20
2019-02-22T13:21:44.863Z,102635.86
2019-02-22T13:24:16.869Z,102644.13
2019-02-22T13:26:49.884Z,102651.77
2019-02-22T13:29:22.394Z,102661.59
2019-02-22T13:31:54.914Z,102658.38
2019-02-22T13:34:27.273Z,102655.94
2019-02-22T13:36:59.860Z,102660.72
2019-02-22T13:39:32.669Z,102665.21
2019-02-22T13:42:04.910Z,102671.90
2019-02-22T13:44:36.918Z,102671.90
2019-02-22T13:47:08.876Z,102681.94
2019-02-22T13:49:41.336Z,102682.80
2019-02-22T13:52:13.879Z,102686.00
2019-02-22T13:54:45.915Z,102692.78
2019-02-22T13:57:17.909Z,102692.47
2019-02-22T13:59:50.019Z,102691.88
2019-02-22T14:02:22.329Z,102698.21
2019-02-22T14:04:55.061Z,102701.47
2019-02-22T14:07:27.828Z,102712.69
2019-02-22T14:10:00.347Z,102717.78
2019-02-22T14:12:32.775Z,102712.05
2019-02-22T14:15:03.742Z,102710.33
2019-02-22T14:17:35.896Z,102718.23
2019-02-22T14:20:08.931Z,102720.41
2019-02-22T14:22:40.881Z,102724.48
2019-02-22T14:25:13.022Z,102724.70
2019-02-22T14:27:45.027Z,102729.13
2019-02-22T14:30:17.389Z,102726.05
2019-02-22T14:32:52.352Z,102735.20
2019-02-22T14:35:25.271Z,102739.13
2019-02-22T14:37:57.878Z,102746.48
2019-02-22T14:40:29.845Z,102745.26
2019-02-22T14:43:02.133Z,102750.12
2019-02-22T14:45:34.795Z,102751.89
2019-02-22T14:48:07.219Z,102753.16
2019-02-22T14:50:39.858Z,102758.81
2019-02-22T14:53:19.172Z,102757.92
2019-02-22T14:55:45.897Z,102766.61
2019-02-22T14:58:18.353Z,102766.61
2019-02-22T15:00:50.872Z,102758.67
2019-02-22T15:03:23.342Z,102762.89
2019-02-22T15:05:55.885Z,102763.28
2019-02-22T15:08:27.888Z,102757.69
2019-02-22T15:11:00.109Z,102753.16
2019-02-22T15:13:33.397Z,102751.48
2019-02-22T15:16:25.135Z,102758.03
2019-02-22T15:18:57.845Z,102762.30
2019-02-22T15:21:29.857Z,102763.80
2019-02-22T15:24:01.964Z,102764.45
2019-02-22T15:26:33.905Z,102773.88
2019-02-22T15:29:06.332Z,102774.49
2019-02-22T15:31:38.861Z,102782.42
2019-02-22T15:34:11.379Z,102787.75
2019-02-22T15:36:43.950Z,102792.29
2019-02-22T15:39:16.339Z,102798.31
2019-02-22T15:41:48.845Z,102801.28
2019-02-22T15:44:20.733Z,102802.13
2019-02-22T15:46:52.340Z,102798.38
2019-02-22T15:49:26.605Z,102806.34
2019-02-22T15:51:58.379Z,102809.94
2019-02-22T15:54:30.269Z,102809.94
2019-02-22T15:57:02.073Z,102806.09
2019-02-22T15:59:33.779Z,102809.42
2019-02-22T16:02:04.641Z,102810.35
2019-02-22T16:05:01.058Z,102808.55
2019-02-22T16:07:43.981Z,102808.55
2019-02-22T16:10:06.517Z,102822.81
2019-02-22T16:12:37.625Z,102822.36
2019-02-22T16:15:09.796Z,102833.13
2019-02-22T16:17:41.808Z,102833.13
2019-02-22T16:20:13.972Z,102841.48
2019-02-22T16:22:45.802Z,102835.91
2019-02-22T16:25:19.983Z,102844.20
2019-02-22T16:27:51.802Z,102845.61
2019-02-22T16:30:25.705Z,102855.05
2019-02-22T16:32:56.459Z,102847.97
2019-02-22T16:35:28.298Z,102849.38
2019-02-22T16:38:00.430Z,102850.86
2019-02-22T16:40:32.260Z,102852.64
2019-02-22T16:43:03.861Z,102857.21
2019-02-22T16:45:35.766Z,102863.09
2019-02-22T16:48:06.471Z,102857.03
2019-02-22T16:50:38.815Z,102857.62
2019-02-22T16:53:10.596Z,102860.33
2019-02-22T16:55:42.341Z,102856.16
2019-02-22T16:58:14.260Z,102856.16
2019-02-22T17:00:45.841Z,102869.78
2019-02-22T17:03:17.615Z,102866.33
2019-02-22T17:05:49.349Z,102871.02
2019-02-22T17:08:21.349Z,102871.02
2019-02-22T17:10:53.057Z,102872.96
2019-02-22T17:13:25.297Z,102871.55
2019-02-22T17:15:56.829Z,102876.70
2019-02-22T17:18:28.408Z,102879.00
2019-02-22T17:21:00.780Z,102879.62
2019-02-22T17:23:31.513Z,102878.83
2019-02-22T17:26:03.289Z,102884.25
2019-02-22T17:28:35.307Z,102890.44
2019-02-22T17:31:06.859Z,102890.50
2019-02-22T17:33:38.642Z,102895.78
2019-02-22T17:36:10.626Z,102901.77
2019-02-22T17:38:42.357Z,102902.62
2019-02-22T17:41:14.337Z,102902.62
2019-02-22T17:43:46.057Z,102923.59
2019-02-22T17:46:17.773Z,102933.73
2019-02-22T17:48:49.758Z,102942.47
2019-02-22T17:51:21.774Z,102953.46
2019-02-22T17:53:52.489Z,102959.26
2019-02-22T17:56:24.601Z,102954.63
2019-02-22T18:01:10.829Z,102947.31
2019-02-22T18:03:42.789Z,102947.17
2019-02-22T18:06:14.746Z,102940.25
2019-02-22T18:08:45.475Z,102933.62
2019-02-22T18:11:17.263Z,102940.72
2019-02-22T18:13:48.898Z,102937.45
2019-02-22T18:16:20.710Z,102937.27
2019-02-22T18:18:51.462Z,102933.38
2019-02-22T18:21:23.258Z,102935.04
2019-02-22T18:23:54.886Z,102950.69
2019-02-22T18:26:26.390Z,102958.77
2019-02-22T18:31:47.539Z,102959.28
2019-02-22T18:34:19.306Z,102979.84
2019-02-22T18:36:50.838Z,102979.84
2019-02-22T18:39:22.717Z,102978.84
2019-02-22T18:41:53.483Z,102985.64
2019-02-22T18:44:25.301Z,102987.27
2019-02-22T18:46:57.357Z,102990.94
2019-02-22T18:49:29.575Z,102988.07
2019-02-22T18:52:01.782Z,102987.31
2019-02-22T18:54:32.490Z,102987.31
2019-02-22T18:57:04.303Z,102984.22
2019-02-22T18:59:36.318Z,102979.03
2019-02-22T19:02:08.038Z,102989.58
2019-02-22T19:04:39.752Z,102992.17
2019-02-22T19:07:11.742Z,103002.00
2019-02-22T19:09:42.488Z,103006.86
2019-02-22T19:12:14.813Z,102998.23
2019-02-22T19:14:46.700Z,102990.52
2019-02-22T19:17:18.749Z,102991.75
2019-02-22T19:19:49.701Z,102987.81
2019-02-22T19:22:21.849Z,102987.25
2019-02-22T19:24:53.884Z,102986.25
2019-02-22T19:27:25.760Z,102982.11
2019-02-22T19:29:56.673Z,102978.67
2019-02-22T19:32:27.925Z,102988.05
2019-02-22T19:34:59.806Z,102996.80
2019-02-22T19:37:32.107Z,102993.28
2019-02-22T19:40:04.262Z,102994.44
2019-02-22T19:42:35.812Z,102993.52
2019-02-22T19:45:08.364Z,103000.30
2019-02-22T19:47:42.249Z,102999.22
2019-02-22T19:50:15.298Z,102996.06
2019-02-22T19:52:47.402Z,102996.06
2019-02-22T19:55:19.374Z,103005.52
2019-02-22T19:57:51.612Z,103005.87
2019-02-22T20:00:23.812Z,103008.55
2019-02-22T20:02:55.856Z,103008.55
2019-02-22T20:05:27.757Z,103006.22
2019-02-22T20:07:58.456Z,102994.56
2019-02-22T20:10:30.309Z,102991.59
2019-02-22T20:13:01.819Z,103005.37
2019-02-22T20:15:33.641Z,103002.38
2019-02-22T20:18:04.445Z,103008.09
2019-02-22T20:20:36.324Z,103008.88
2019-02-22T20:23:08.012Z,103015.80
2019-02-22T20:25:39.810Z,103024.34
2019-02-22T20:28:11.790Z,103020.36
2019-02-22T20:30:43.524Z,103030.55
2019-02-22T20:45:27.858Z,103053.70
2019-02-22T20:48:05.263Z,103061.36
2019-02-22T20:50:35.336Z,103065.11
2019-02-22T20:53:08.035Z,103062.98
2019-02-22T20:55:40.401Z,103065.52
2019-02-22T20:58:12.857Z,103068.23
2019-02-22T21:00:45.341Z,103062.23
2019-02-22T21:03:17.796Z,103062.80
2019-02-22T21:05:50.474Z,103058.45
2019-02-22T21:08:24.753Z,103054.67
2019-02-22T21:10:57.585Z,103054.67
2019-02-22T21:13:29.819Z,103054.49
2019-02-22T21:16:02.319Z,103054.49
2019-02-22T21:18:34.839Z,103064.08
2019-02-22T21:21:07.337Z,103063.96
2019-02-22T21:23:39.454Z,103070.94
2019-02-22T21:26:11.839Z,103069.77
2019-02-22T21:28:43.847Z,103064.92
2019-02-22T21:31:16.744Z,103060.09
2019-02-22T21:33:47.671Z,103065.22
2019-02-22T21:36:19.867Z,103062.61
2019-02-22T21:38:52.319Z,103069.27
2019-02-22T21:41:30.884Z,103067.16
2019-02-22T21:44:03.903Z,103072.41
2019-02-22T21:46:35.882Z,103074.63
2019-02-22T21:49:07.883Z,103080.33
2019-02-22T21:51:40.473Z,103078.86
2019-02-22T21:54:12.839Z,103085.83
2019-02-22T21:56:44.941Z,103084.30
2019-02-22T21:59:17.331Z,103088.95
2019-02-22T22:01:50.081Z,103084.98
2019-02-22T22:04:22.859Z,103088.75
2019-02-22T22:06:54.922Z,103091.28
2019-02-22T22:09:26.944Z,103085.44
2019-02-22T22:11:59.383Z,103090.97
2019-02-22T22:14:32.112Z,103098.24
2019-02-22T22:17:04.382Z,103103.64
2019-02-22T22:19:37.358Z,103106.89
2019-02-22T22:22:09.933Z,103114.64
2019-02-22T22:24:42.168Z,103112.85
2019-02-22T22:27:14.758Z,103106.55
2019-02-22T22:29:47.397Z,103110.44
2019-02-22T22:32:19.887Z,103118.56
2019-02-22T22:34:51.880Z,103121.58
2019-02-22T22:37:24.102Z,103121.08
2019-02-22T22:39:56.877Z,103125.08
2019-02-22T22:42:29.028Z,103135.19
2019-02-22T22:45:01.546Z,103139.68
2019-02-22T22:47:34.336Z,103147.03
2019-02-22T22:50:07.911Z,103149.92
2019-02-22T22:52:40.624Z,103153.31
2019-02-22T22:55:12.912Z,103153.02
2019-02-22T22:57:45.403Z,103153.02
2019-02-22T23:01:15.796Z,103151.17
2019-02-22T23:03:47.817Z,103153.80
2019-02-22T23:06:20.866Z,103156.24
2019-02-22T23:08:53.090Z,103162.41
2019-02-22T23:11:25.386Z,103162.01
2019-02-22T23:13:58.858Z,103157.59
2019-02-22T23:16:31.065Z,103160.55
2019-02-22T23:19:03.349Z,103167.54
2019-02-22T23:21:35.904Z,103161.65
2019-02-22T23:24:08.377Z,103160.09
2019-02-22T23:26:41.423Z,103166.43
2019-02-22T23:29:13.848Z,103162.26
2019-02-22T23:31:45.844Z,103160.69
2019-02-22T23:34:17.862Z,103168.18
2019-02-22T23:36:49.888Z,103169.05
2019-02-22T23:39:21.888Z,103161.28
2019-02-22T23:41:54.296Z,103153.71
2019-02-22T23:44:26.906Z,103151.31
2019-02-22T23:46:58.945Z,103158.67
2019-02-22T23:49:30.865Z,103152.16
2019-02-22T23:52:02.894Z,103145.97
2019-02-22T23:54:35.354Z,103146.42
2019-02-22T23:57:07.844Z,103144.44
2019-02-22T23:59:40.329Z,103155.34
